createdAt,value
2019-02-27T00:01:53.364Z,95102.64
2019-02-27T00:04:19.362Z,95097.62
2019-02-27T00:06:47.703Z,95101.11
2019-02-27T00:09:11.362Z,95103.85
2019-02-27T00:11:37.355Z,95107.43
2019-02-27T00:14:03.358Z,95103.14
2019-02-27T00:16:29.349Z,95108.58
2019-02-27T00:18:58.632Z,95105.91
2019-02-27T00:21:21.349Z,95102.84
2019-02-27T00:23:47.347Z,95103.14
2019-02-27T00:26:13.345Z,95107.95
2019-02-27T00:28:39.403Z,95109.91
2019-02-27T00:31:05.402Z,95103.55
2019-02-27T00:33:31.403Z,95104.58
2019-02-27T00:35:57.404Z,95093.61
2019-02-27T00:38:25.211Z,95093.73
2019-02-27T00:40:49.405Z,95084.30
2019-02-27T00:43:15.399Z,95083.59
2019-02-27T00:45:41.406Z,95086.75
2019-02-27T00:48:07.403Z,95086.14
2019-02-27T00:50:33.404Z,95085.84
2019-02-27T00:52:59.395Z,95083.38
2019-02-27T00:55:25.396Z,95083.38
2019-02-27T00:57:51.856Z,95079.10
2019-02-27T01:00:17.399Z,95081.55
2019-02-27T01:02:43.397Z,95078.35
2019-02-27T01:05:09.492Z,95065.88
2019-02-27T01:07:35.401Z,95066.00
2019-02-27T01:10:01.403Z,95069.16
2019-02-27T01:12:27.418Z,95064.55
2019-02-27T01:14:53.399Z,95061.39
2019-02-27T01:17:20.938Z,95062.39
2019-02-27T01:19:45.390Z,95057.06
2019-02-27T01:22:11.402Z,95057.68
2019-02-27T01:24:37.386Z,95063.84
2019-02-27T01:27:04.669Z,95061.59
2019-02-27T01:29:29.384Z,95057.90
2019-02-27T01:31:57.678Z,95057.90
2019-02-27T01:34:21.380Z,95055.03
2019-02-27T01:36:47.380Z,95059.64
2019-02-27T01:39:13.383Z,95065.38
2019-02-27T01:41:39.388Z,95064.55
2019-02-27T01:44:05.389Z,95057.59
2019-02-27T01:46:31.388Z,95053.08
2019-02-27T01:48:57.463Z,95047.37
2019-02-27T01:51:25.766Z,95053.27
2019-02-27T01:53:49.493Z,95057.80
2019-02-27T01:56:15.489Z,95057.80
2019-02-27T01:58:44.285Z,95056.88
2019-02-27T02:01:07.486Z,95064.33
2019-02-27T02:03:33.485Z,95067.91
2019-02-27T02:05:59.867Z,95064.03
2019-02-27T02:08:25.469Z,95062.09
2019-02-27T02:10:51.473Z,95064.12
2019-02-27T02:13:17.476Z,95071.81
2019-02-27T02:15:43.471Z,95066.70
2019-02-27T02:18:11.899Z,95061.87
2019-02-27T02:20:35.479Z,95067.20
2019-02-27T02:23:01.480Z,95072.63
2019-02-27T02:25:27.988Z,95060.45
2019-02-27T02:27:53.516Z,95066.70
2019-02-27T02:30:19.514Z,95063.91
2019-02-27T02:32:51.869Z,95055.64
2019-02-27T02:35:14.843Z,95051.44
2019-02-27T02:37:38.182Z,95056.05
2019-02-27T02:40:03.508Z,95060.55
2019-02-27T02:42:29.505Z,95064.23
2019-02-27T02:44:57.727Z,95067.11
2019-02-27T02:47:21.568Z,95065.66
2019-02-27T02:49:47.500Z,95074.77
2019-02-27T02:52:13.499Z,95081.74
2019-02-27T02:54:39.498Z,95077.34
2019-02-27T02:57:05.507Z,95079.39
2019-02-27T02:59:31.507Z,95083.59
2019-02-27T03:01:57.499Z,95081.62
2019-02-27T03:04:23.495Z,95083.49
2019-02-27T03:06:49.490Z,95087.28
2019-02-27T03:09:15.496Z,95081.55
2019-02-27T03:11:41.493Z,95083.58
2019-02-27T03:14:07.493Z,95087.37
2019-02-27T03:16:33.490Z,95090.73
2019-02-27T03:19:05.058Z,95087.69
2019-02-27T03:21:28.545Z,95088.06
2019-02-27T03:23:52.536Z,95095.66
2019-02-27T03:26:17.773Z,95099.27
2019-02-27T03:28:43.527Z,95100.79
2019-02-27T03:31:16.053Z,95099.45
2019-02-27T03:33:35.524Z,95100.04
2019-02-27T03:36:03.465Z,95100.26
2019-02-27T03:38:27.530Z,95098.42
2019-02-27T03:40:53.527Z,95096.68
2019-02-27T03:43:19.526Z,95095.13
2019-02-27T03:45:45.531Z,95092.47
2019-02-27T03:48:11.535Z,95090.34
2019-02-27T03:50:37.554Z,95090.73
2019-02-27T03:53:03.538Z,95091.56
2019-02-27T03:55:32.854Z,95092.05
2019-02-27T03:57:56.114Z,95091.26
2019-02-27T04:00:21.546Z,95101.48
2019-02-27T04:02:47.545Z,95099.27
2019-02-27T04:05:13.569Z,95102.30
2019-02-27T04:07:39.568Z,95100.67
2019-02-27T04:10:05.564Z,95099.95
2019-02-27T04:12:31.573Z,95097.72
2019-02-27T04:14:57.569Z,95104.77
2019-02-27T04:17:23.571Z,95106.11
2019-02-27T04:19:49.570Z,95113.36
2019-02-27T04:22:15.564Z,95115.31
2019-02-27T04:24:41.564Z,95112.43
2019-02-27T04:27:07.563Z,95127.70
2019-02-27T04:29:33.573Z,95127.20
2019-02-27T04:32:00.365Z,95121.33
2019-02-27T04:34:26.369Z,95125.13
2019-02-27T04:36:53.027Z,95121.66
2019-02-27T04:39:19.027Z,95121.97
2019-02-27T04:41:45.022Z,95120.44
2019-02-27T04:44:11.027Z,95118.80
2019-02-27T04:46:37.019Z,95117.14
2019-02-27T04:49:04.952Z,95118.89
2019-02-27T04:51:29.029Z,95125.88
2019-02-27T04:53:55.029Z,95129.53
2019-02-27T04:56:23.261Z,95136.30
2019-02-27T04:58:47.022Z,95131.58
2019-02-27T05:01:13.022Z,95136.81
2019-02-27T05:03:39.023Z,95139.56
2019-02-27T05:06:05.020Z,95141.22
2019-02-27T05:08:31.019Z,95146.75
2019-02-27T05:10:57.023Z,95155.14
2019-02-27T05:13:23.019Z,95153.20
2019-02-27T05:15:49.023Z,95151.45
2019-02-27T05:18:15.023Z,95151.34
2019-02-27T05:20:44.967Z,95153.28
2019-02-27T05:23:07.041Z,95157.98
2019-02-27T05:25:33.046Z,95153.89
2019-02-27T05:28:01.263Z,95153.81
2019-02-27T05:30:25.080Z,95165.67
2019-02-27T05:32:51.078Z,95160.35
2019-02-27T05:35:17.103Z,95164.95
2019-02-27T05:37:43.091Z,95161.58
2019-02-27T05:40:09.188Z,95159.00
2019-02-27T05:42:38.567Z,95162.19
2019-02-27T05:45:01.185Z,95166.27
2019-02-27T05:47:27.186Z,95172.09
2019-02-27T05:49:53.213Z,95177.82
2019-02-27T05:52:19.245Z,95176.08
2019-02-27T05:54:45.272Z,95181.31
2019-02-27T05:57:11.279Z,95182.73
2019-02-27T05:59:37.275Z,95184.59
2019-02-27T06:02:03.287Z,95185.92
2019-02-27T06:04:29.337Z,95191.33
2019-02-27T06:06:55.335Z,95202.30
2019-02-27T06:09:21.335Z,95200.22
2019-02-27T06:11:47.334Z,95207.70
2019-02-27T06:14:13.335Z,95206.67
2019-02-27T06:16:40.826Z,95211.70
2019-02-27T06:19:05.350Z,95214.36
2019-02-27T06:21:31.347Z,95219.68
2019-02-27T06:23:57.347Z,95213.84
2019-02-27T06:26:23.357Z,95219.27
2019-02-27T06:28:49.419Z,95226.34
2019-02-27T06:31:15.480Z,95222.84
2019-02-27T06:33:45.088Z,95228.58
2019-02-27T06:36:08.462Z,95233.41
2019-02-27T06:38:33.503Z,95238.31
2019-02-27T06:40:59.546Z,95239.64
2019-02-27T06:43:27.317Z,95249.87
2019-02-27T06:45:51.528Z,95245.87
2019-02-27T06:48:17.527Z,95242.60
2019-02-27T06:50:43.541Z,95255.41
2019-02-27T06:53:09.544Z,95254.38
2019-02-27T06:55:35.576Z,95252.25
2019-02-27T06:58:01.543Z,95253.80
2019-02-27T07:00:27.585Z,95261.26
2019-02-27T07:02:55.498Z,95249.89
2019-02-27T07:05:19.620Z,95249.89
2019-02-27T07:07:45.631Z,95249.06
2019-02-27T07:10:11.632Z,95255.22
2019-02-27T07:12:37.908Z,95259.63
2019-02-27T07:15:03.904Z,95263.61
2019-02-27T07:17:31.717Z,95267.80
2019-02-27T07:19:55.928Z,95270.96
2019-02-27T07:22:21.939Z,95267.38
2019-02-27T07:24:47.937Z,95274.95
2019-02-27T07:27:13.933Z,95271.48
2019-02-27T07:29:39.938Z,95273.63
2019-02-27T07:32:06.115Z,95281.11
2019-02-27T07:34:32.139Z,95282.30
2019-02-27T07:36:58.136Z,95284.80
2019-02-27T07:39:24.147Z,95288.87
2019-02-27T07:41:50.153Z,95289.70
2019-02-27T07:44:16.148Z,95287.23
2019-02-27T07:46:42.152Z,95286.81
2019-02-27T07:49:08.145Z,95289.06
2019-02-27T07:51:34.169Z,95297.05
2019-02-27T07:54:00.179Z,95303.78
2019-02-27T07:56:26.178Z,95310.34
2019-02-27T07:58:52.181Z,95305.86
2019-02-27T08:01:20.894Z,95310.05
2019-02-27T08:03:45.578Z,95313.92
2019-02-27T08:06:10.199Z,95310.77
2019-02-27T08:08:36.199Z,95313.42
2019-02-27T08:11:02.206Z,95311.27
2019-02-27T08:13:29.719Z,95315.67
2019-02-27T08:15:54.220Z,95313.09
2019-02-27T08:18:29.580Z,95313.92
2019-02-27T08:20:48.047Z,95319.25
2019-02-27T08:23:12.227Z,95314.75
2019-02-27T08:25:38.231Z,95319.97
2019-02-27T08:28:04.222Z,95323.88
2019-02-27T08:30:30.265Z,95320.87
2019-02-27T08:32:56.272Z,95318.22
2019-02-27T08:35:22.271Z,95319.66
2019-02-27T08:37:48.271Z,95322.13
2019-02-27T08:40:14.291Z,95320.80
2019-02-27T08:42:40.629Z,95326.95
2019-02-27T08:45:06.361Z,95317.42
2019-02-27T08:47:33.662Z,95326.13
2019-02-27T08:49:58.653Z,95329.20
2019-02-27T08:52:24.428Z,95329.92
2019-02-27T08:54:50.419Z,95340.15
2019-02-27T08:57:16.415Z,95343.64
2019-02-27T08:59:42.531Z,95338.55
2019-02-27T09:02:08.530Z,95333.45
2019-02-27T09:04:34.534Z,95326.27
2019-02-27T09:07:02.842Z,95329.67
2019-02-27T09:09:26.531Z,95330.40
2019-02-27T09:11:52.544Z,95338.77
2019-02-27T09:14:18.540Z,95349.03
2019-02-27T09:16:44.543Z,95345.06
2019-02-27T09:21:36.549Z,95353.55
2019-02-27T09:24:02.560Z,95349.75
2019-02-27T09:26:28.559Z,95356.06
2019-02-27T09:28:54.556Z,95356.18
2019-02-27T09:31:20.598Z,95351.88
2019-02-27T09:33:46.616Z,95353.60
2019-02-27T09:36:12.600Z,95349.03
2019-02-27T09:38:38.603Z,95351.80
2019-02-27T09:41:04.708Z,95350.06
2019-02-27T09:43:32.233Z,95354.69
2019-02-27T09:45:59.716Z,95352.64
2019-02-27T09:48:26.811Z,95356.10
2019-02-27T09:51:16.151Z,95352.94
2019-02-27T09:53:47.803Z,95359.10
2019-02-27T09:56:13.824Z,95355.61
2019-02-27T09:58:45.094Z,95358.16
2019-02-27T10:01:06.035Z,95359.10
2019-02-27T10:03:35.612Z,95356.33
2019-02-27T10:06:03.153Z,95354.99
2019-02-27T10:08:32.647Z,95354.91
2019-02-27T10:11:05.153Z,95357.95
2019-02-27T10:13:31.115Z,95361.04
2019-02-27T10:16:00.478Z,95363.62
2019-02-27T10:18:23.132Z,95365.75
2019-02-27T10:20:49.148Z,95361.77
2019-02-27T10:23:15.267Z,95361.77
2019-02-27T10:25:43.468Z,95355.11
2019-02-27T10:28:07.277Z,95357.05
2019-02-27T10:30:33.285Z,95359.93
2019-02-27T10:32:59.283Z,95357.77
2019-02-27T10:35:26.826Z,95363.73
2019-02-27T10:37:54.233Z,95359.52
2019-02-27T10:40:17.316Z,95363.51
2019-02-27T10:42:43.337Z,95365.48
2019-02-27T10:45:10.156Z,95366.20
2019-02-27T10:47:36.537Z,95359.66
2019-02-27T10:50:02.197Z,95361.06
2019-02-27T10:52:27.348Z,95358.52
2019-02-27T10:54:53.358Z,95356.36
2019-02-27T10:57:19.343Z,95352.78
2019-02-27T10:59:45.347Z,95361.27
2019-02-27T11:02:12.516Z,95363.42
2019-02-27T11:04:38.911Z,95365.26
2019-02-27T11:07:03.353Z,95361.27
2019-02-27T11:09:29.349Z,95360.23
2019-02-27T11:11:55.352Z,95365.98
2019-02-27T11:14:21.394Z,95356.66
2019-02-27T11:16:47.433Z,95353.00
2019-02-27T11:19:14.158Z,95349.92
2019-02-27T11:21:39.436Z,95354.72
2019-02-27T11:24:05.436Z,95349.92
2019-02-27T11:26:33.365Z,95352.17
2019-02-27T11:28:57.863Z,95350.92
2019-02-27T11:31:23.450Z,95347.45
2019-02-27T11:33:49.451Z,95342.63
2019-02-27T11:36:15.456Z,95343.13
2019-02-27T11:38:41.452Z,95343.13
2019-02-27T11:41:07.456Z,95346.81
2019-02-27T11:43:33.451Z,95347.84
2019-02-27T11:45:59.459Z,95348.26
2019-02-27T11:48:25.451Z,95345.80
2019-02-27T11:50:51.468Z,95340.97
2019-02-27T11:53:17.460Z,95340.24
2019-02-27T11:55:43.485Z,95338.80
2019-02-27T11:58:09.481Z,95341.23
2019-02-27T12:00:35.483Z,95337.28
2019-02-27T12:03:01.488Z,95342.48
2019-02-27T12:05:30.775Z,95344.54
2019-02-27T12:07:53.496Z,95342.48
2019-02-27T12:10:19.531Z,95332.87
2019-02-27T12:12:45.532Z,95338.88
2019-02-27T12:15:11.537Z,95339.80
2019-02-27T12:17:37.534Z,95345.31
2019-02-27T12:20:03.527Z,95348.09
2019-02-27T12:22:29.525Z,95347.33
2019-02-27T12:24:55.527Z,95354.09
2019-02-27T12:27:47.333Z,95344.86
2019-02-27T12:29:47.559Z,95344.97
2019-02-27T12:32:13.544Z,95346.80
2019-02-27T12:34:39.541Z,95349.47
2019-02-27T12:37:05.540Z,95341.59
2019-02-27T12:39:31.539Z,95342.92
2019-02-27T12:41:57.535Z,95346.38
2019-02-27T12:44:23.536Z,95342.39
2019-02-27T12:46:49.535Z,95344.67
2019-02-27T12:49:16.889Z,95342.01
2019-02-27T12:51:41.548Z,95337.59
2019-02-27T12:54:07.573Z,95338.52
2019-02-27T12:56:33.570Z,95342.73
2019-02-27T12:58:59.588Z,95341.59
2019-02-27T13:01:25.930Z,95350.19
2019-02-27T13:03:51.932Z,95351.52
2019-02-27T13:06:18.027Z,95346.72
2019-02-27T13:08:44.019Z,95347.94
2019-02-27T13:11:10.022Z,95352.84
2019-02-27T13:13:36.017Z,95349.38
2019-02-27T13:16:02.216Z,95353.38
2019-02-27T13:18:31.542Z,95365.02
2019-02-27T13:20:54.268Z,95363.69
2019-02-27T13:23:20.272Z,95362.05
2019-02-27T13:25:46.270Z,95366.12
2019-02-27T13:28:14.581Z,95369.72
2019-02-27T13:30:41.285Z,95377.29
2019-02-27T13:33:04.378Z,95376.45
2019-02-27T13:35:30.374Z,95375.05
2019-02-27T13:37:56.371Z,95374.74
2019-02-27T13:40:22.407Z,95378.32
2019-02-27T13:42:52.365Z,95376.61
2019-02-27T13:45:14.406Z,95382.87
2019-02-27T13:47:40.442Z,95380.41
2019-02-27T13:50:06.446Z,95378.39
2019-02-27T13:52:32.574Z,95390.78
2019-02-27T13:54:58.588Z,95395.98
2019-02-27T13:57:25.830Z,95399.68
2019-02-27T13:59:50.574Z,95403.63
2019-02-27T14:02:16.589Z,95403.36
2019-02-27T14:04:42.580Z,95413.17
2019-02-27T14:07:08.587Z,95412.03
2019-02-27T14:09:34.588Z,95418.16
2019-02-27T14:12:00.582Z,95421.95
2019-02-27T14:14:26.609Z,95415.91
2019-02-27T14:16:52.618Z,95419.19
2019-02-27T14:19:21.382Z,95415.39
2019-02-27T14:21:44.993Z,95413.06
2019-02-27T14:24:10.751Z,95414.28
2019-02-27T14:26:38.299Z,95414.47
2019-02-27T14:29:04.155Z,95414.58
2019-02-27T14:31:28.755Z,95401.16
2019-02-27T14:33:55.043Z,95399.95
2019-02-27T14:36:20.773Z,95387.86
2019-02-27T14:38:46.760Z,95387.63
2019-02-27T14:41:14.521Z,95392.05
2019-02-27T14:43:38.754Z,95387.83
2019-02-27T14:46:04.769Z,95384.02
2019-02-27T14:48:30.764Z,95382.20
2019-02-27T14:50:56.768Z,95385.16
2019-02-27T14:53:22.775Z,95379.42
2019-02-27T14:55:48.771Z,95383.11
2019-02-27T14:58:14.828Z,95396.00
2019-02-27T15:00:41.180Z,95391.59
2019-02-27T15:03:06.832Z,95383.22
2019-02-27T15:05:32.828Z,95386.88
2019-02-27T15:07:58.832Z,95386.98
2019-02-27T15:10:24.829Z,95391.89
2019-02-27T15:12:53.896Z,95392.80
2019-02-27T15:15:16.831Z,95391.59
2019-02-27T15:17:42.836Z,95387.59
2019-02-27T15:20:08.832Z,95386.34
2019-02-27T15:22:34.863Z,95389.11
2019-02-27T15:25:00.863Z,95382.95
2019-02-27T15:27:26.905Z,95382.47
2019-02-27T15:29:52.903Z,95374.98
2019-02-27T15:32:18.906Z,95384.38
2019-02-27T15:34:45.916Z,95390.22
2019-02-27T15:37:11.026Z,95384.06
2019-02-27T15:39:36.998Z,95386.72
2019-02-27T15:42:03.285Z,95380.56
2019-02-27T15:44:31.382Z,95385.58
2019-02-27T15:46:56.653Z,95381.52
2019-02-27T15:49:21.101Z,95378.52
2019-02-27T15:51:48.143Z,95384.25
2019-02-27T15:54:14.145Z,95387.94
2019-02-27T15:56:41.991Z,95389.77
2019-02-27T15:59:08.154Z,95390.19
2019-02-27T16:01:33.067Z,95393.26
2019-02-27T16:03:58.179Z,95388.02
2019-02-27T16:06:25.559Z,95393.07
2019-02-27T16:08:50.278Z,95390.59
2019-02-27T16:11:16.563Z,95392.73
2019-02-27T16:13:42.277Z,95391.82
2019-02-27T16:16:08.324Z,95392.84
2019-02-27T16:18:36.915Z,95397.25
2019-02-27T16:21:00.374Z,95401.66
2019-02-27T16:23:26.373Z,95396.42
2019-02-27T16:25:53.744Z,95401.73
2019-02-27T16:28:18.371Z,95397.75
2019-02-27T16:30:44.374Z,95399.58
2019-02-27T16:33:10.371Z,95401.13
2019-02-27T16:35:41.433Z,95401.47
2019-02-27T16:38:02.415Z,95405.77
2019-02-27T16:40:28.449Z,95402.91
2019-02-27T16:42:54.436Z,95404.55
2019-02-27T16:45:20.537Z,95407.82
2019-02-27T16:47:46.609Z,95407.82
2019-02-27T16:50:12.615Z,95406.41
2019-02-27T16:52:39.202Z,95413.26
2019-02-27T16:55:04.622Z,95405.69
2019-02-27T16:57:30.615Z,95410.41
2019-02-27T16:59:56.665Z,95402.53
2019-02-27T17:02:22.665Z,95408.50
2019-02-27T17:04:48.673Z,95400.18
2019-02-27T17:07:14.956Z,95404.70
2019-02-27T17:09:41.044Z,95405.20
2019-02-27T17:12:07.930Z,95408.88
2019-02-27T17:14:33.355Z,95412.69
2019-02-27T17:16:59.399Z,95414.81
2019-02-27T17:19:25.392Z,95415.73
2019-02-27T17:21:51.391Z,95416.67
2019-02-27T17:24:21.014Z,95414.52
2019-02-27T17:26:43.406Z,95413.87
2019-02-27T17:29:09.400Z,95415.31
2019-02-27T17:31:35.608Z,95412.65
2019-02-27T17:34:01.479Z,95417.14
2019-02-27T17:36:31.495Z,95417.55
2019-02-27T17:38:53.483Z,95411.39
2019-02-27T17:41:19.477Z,95410.79
2019-02-27T17:43:45.526Z,95415.01
2019-02-27T17:46:11.531Z,95413.67
2019-02-27T17:48:37.529Z,95421.58
2019-02-27T17:51:06.477Z,95420.25
2019-02-27T17:53:30.359Z,95418.50
2019-02-27T17:55:57.465Z,95414.81
2019-02-27T17:58:23.461Z,95417.48
2019-02-27T18:00:51.120Z,95420.97
2019-02-27T18:03:15.481Z,95424.05
2019-02-27T18:05:41.508Z,95419.53
2019-02-27T18:08:07.505Z,95422.61
2019-02-27T18:10:37.278Z,95416.79
2019-02-27T18:13:01.446Z,95420.67
2019-02-27T18:15:29.586Z,95417.52
2019-02-27T18:17:52.709Z,95420.67
2019-02-27T18:20:18.708Z,95424.50
2019-02-27T18:22:45.927Z,95423.98
2019-02-27T18:25:10.705Z,95421.05
2019-02-27T18:27:36.838Z,95417.52
2019-02-27T18:30:02.831Z,95422.61
2019-02-27T18:32:28.830Z,95424.97
2019-02-27T18:34:55.272Z,95423.63
2019-02-27T18:37:20.857Z,95414.81
2019-02-27T18:39:46.855Z,95416.86
2019-02-27T18:42:12.854Z,95417.59
2019-02-27T18:44:41.484Z,95413.78
2019-02-27T18:47:04.868Z,95423.52
2019-02-27T18:49:30.867Z,95418.20
2019-02-27T18:51:56.863Z,95418.69
2019-02-27T18:54:25.107Z,95422.19
2019-02-27T18:56:49.566Z,95422.98
2019-02-27T18:59:15.071Z,95419.41
2019-02-27T19:01:41.385Z,95418.50
2019-02-27T19:04:09.120Z,95419.22
2019-02-27T19:06:33.077Z,95419.53
2019-02-27T19:09:00.450Z,95413.83
2019-02-27T19:11:25.085Z,95415.34
2019-02-27T19:13:51.086Z,95414.77
2019-02-27T19:16:17.480Z,95412.38
2019-02-27T19:18:43.093Z,95406.98
2019-02-27T19:21:09.097Z,95403.91
2019-02-27T19:23:35.096Z,95403.79
2019-02-27T19:26:01.094Z,95400.22
2019-02-27T19:28:27.096Z,95405.87
2019-02-27T19:30:53.161Z,95401.36
2019-02-27T19:33:19.193Z,95402.69
2019-02-27T19:35:45.184Z,95396.95
2019-02-27T19:38:12.895Z,95402.27
2019-02-27T19:40:37.175Z,95394.62
2019-02-27T19:43:03.285Z,95387.14
2019-02-27T19:45:29.287Z,95388.89
2019-02-27T19:47:55.855Z,95392.88
2019-02-27T19:50:21.917Z,95396.87
2019-02-27T19:52:47.915Z,95396.45
2019-02-27T19:55:13.931Z,95404.24
2019-02-27T19:57:42.440Z,95400.75
2019-02-27T20:00:06.087Z,95400.17
2019-02-27T20:02:32.086Z,95398.42
2019-02-27T20:04:58.170Z,95402.83
2019-02-27T20:07:24.167Z,95395.23
2019-02-27T20:09:51.414Z,95396.94
2019-02-27T20:12:16.523Z,95388.34
2019-02-27T20:14:42.390Z,95386.67
2019-02-27T20:17:08.397Z,95389.75
2019-02-27T20:19:34.440Z,95385.72
2019-02-27T20:22:00.467Z,95376.40
2019-02-27T20:24:26.467Z,95377.84
2019-02-27T20:26:54.851Z,95375.27
2019-02-27T20:29:18.474Z,95371.77
2019-02-27T20:31:44.472Z,95361.62
2019-02-27T20:34:11.595Z,95359.26
2019-02-27T20:36:36.467Z,95361.92
2019-02-27T20:39:03.310Z,95358.23
2019-02-27T20:41:28.463Z,95348.91
2019-02-27T20:43:54.574Z,95352.19
2019-02-27T20:46:20.572Z,95349.83
2019-02-27T20:48:46.590Z,95355.80
2019-02-27T20:51:12.601Z,95356.48
2019-02-27T20:53:38.604Z,95355.16
2019-02-27T20:56:04.608Z,95358.84
2019-02-27T20:58:30.615Z,95356.48
2019-02-27T21:00:56.607Z,95352.00
2019-02-27T21:03:26.919Z,95353.83
2019-02-27T21:05:48.680Z,95355.16
2019-02-27T21:08:14.606Z,95349.03
2019-02-27T21:10:40.619Z,95341.55
2019-02-27T21:13:06.621Z,95343.30
2019-02-27T21:15:33.449Z,95345.53
2019-02-27T21:17:58.870Z,95342.04
2019-02-27T21:20:24.671Z,95340.09
2019-02-27T21:22:50.681Z,95340.21
2019-02-27T21:25:16.677Z,95343.18
2019-02-27T21:27:42.677Z,95338.69
2019-02-27T21:30:08.671Z,95335.61
2019-02-27T21:32:36.150Z,95331.31
2019-02-27T21:35:00.675Z,95329.56
2019-02-27T21:37:26.676Z,95336.03
2019-02-27T21:39:52.680Z,95333.64
2019-02-27T21:42:19.527Z,95339.30
2019-02-27T21:44:44.677Z,95334.89
2019-02-27T21:47:10.681Z,95331.31
2019-02-27T21:49:36.671Z,95324.74
2019-02-27T21:52:02.671Z,95327.21
2019-02-27T21:54:28.667Z,95320.25
2019-02-27T21:56:55.206Z,95326.41
2019-02-27T21:59:20.672Z,95324.47
2019-02-27T22:01:46.667Z,95316.79
2019-02-27T22:04:12.672Z,95317.17
2019-02-27T22:06:38.672Z,95316.56
2019-02-27T22:09:04.670Z,95319.22
2019-02-27T22:11:30.659Z,95321.89
2019-02-27T22:13:56.660Z,95327.33
2019-02-27T22:16:22.660Z,95332.64
2019-02-27T22:18:48.670Z,95327.63
2019-02-27T22:21:14.668Z,95335.72
2019-02-27T22:23:40.668Z,95332.53
2019-02-27T22:26:06.674Z,95328.13
2019-02-27T22:28:32.677Z,95324.13
2019-02-27T22:30:58.673Z,95325.38
2019-02-27T22:33:24.676Z,95334.70
2019-02-27T22:35:50.668Z,95334.39
2019-02-27T22:38:16.691Z,95332.23
2019-02-27T22:40:42.686Z,95329.98
2019-02-27T22:43:08.684Z,95331.09
2019-02-27T22:45:36.101Z,95336.30
2019-02-27T22:48:00.675Z,95340.21
2019-02-27T22:50:26.684Z,95342.77
2019-02-27T22:52:54.616Z,95342.57
2019-02-27T22:55:18.680Z,95339.38
2019-02-27T22:57:44.673Z,95345.04
2019-02-27T23:00:11.376Z,95338.66
2019-02-27T23:02:36.667Z,95331.92
2019-02-27T23:05:04.941Z,95332.84
2019-02-27T23:07:28.664Z,95324.13
2019-02-27T23:09:57.520Z,95324.74
2019-02-27T23:12:20.683Z,95327.09
2019-02-27T23:14:46.688Z,95328.20
2019-02-27T23:17:12.685Z,95330.06
2019-02-27T23:19:38.707Z,95327.59
2019-02-27T23:22:04.699Z,95335.39
2019-02-27T23:24:30.692Z,95327.09
2019-02-27T23:26:56.692Z,95326.27
2019-02-27T23:29:22.689Z,95316.15
2019-02-27T23:31:48.687Z,95326.60
2019-02-27T23:34:14.684Z,95327.52
2019-02-27T23:36:40.693Z,95330.17
2019-02-27T23:39:08.651Z,95327.29
2019-02-27T23:41:32.684Z,95323.00
2019-02-27T23:43:58.684Z,95321.05
2019-02-27T23:46:24.680Z,95325.47
2019-02-27T23:48:50.679Z,95324.02
2019-02-27T23:51:17.000Z,95329.34
2019-02-27T23:53:42.681Z,95327.38
2019-02-27T23:56:08.676Z,95322.27
2019-02-27T23:58:34.694Z,95324.74
